createdAt,value
2016-07-08T00:03:47.484Z,1019.11
2016-07-08T00:08:47.476Z,1019
2016-07-08T00:13:47.470Z,1018.95
2016-07-08T00:18:47.465Z,1018.9
2016-07-08T00:23:47.458Z,1018.78
2016-07-08T00:28:47.448Z,1018.73
2016-07-08T00:33:47.442Z,1018.66
2016-07-08T00:38:47.435Z,1018.65
2016-07-08T00:43:47.429Z,1018.65
2016-07-08T00:48:47.423Z,1018.64
2016-07-08T00:53:47.422Z,1018.54
2016-07-08T00:58:47.408Z,1018.53
2016-07-08T01:03:47.401Z,1018.45
2016-07-08T01:08:47.392Z,1018.38
2016-07-08T01:13:47.390Z,1018.35
2016-07-08T01:18:47.380Z,1018.28
2016-07-08T01:23:47.373Z,1018.18
2016-07-08T01:28:47.366Z,1018.17
2016-07-08T01:33:47.356Z,1018.09
2016-07-08T01:38:47.350Z,1017.96
2016-07-08T01:43:47.341Z,1017.88
2016-07-08T01:48:47.333Z,1017.77
2016-07-08T01:53:47.325Z,1017.85
2016-07-08T01:58:47.319Z,1017.8
2016-07-08T02:03:47.309Z,1017.88
2016-07-08T02:08:47.301Z,1017.82
2016-07-08T02:13:47.293Z,1017.69
2016-07-08T02:18:47.284Z,1017.61
2016-07-08T02:23:47.274Z,1017.62
2016-07-08T02:28:47.268Z,1017.65
2016-07-08T02:33:47.258Z,1017.62
2016-07-08T02:38:47.250Z,1017.61
2016-07-08T02:43:47.239Z,1017.58
2016-07-08T02:48:47.232Z,1017.55
2016-07-08T02:53:47.224Z,1017.52
2016-07-08T02:58:47.212Z,1017.45
2016-07-08T03:03:47.206Z,1017.43
2016-07-08T03:08:47.195Z,1017.44
2016-07-08T03:13:47.187Z,1017.33
2016-07-08T03:18:47.175Z,1017.21
2016-07-08T03:23:47.165Z,1017.17
2016-07-08T03:28:47.158Z,1017.12
2016-07-08T03:33:47.150Z,1017.08
2016-07-08T03:38:47.145Z,1017.07
2016-07-08T03:43:47.135Z,1016.87
2016-07-08T03:48:47.128Z,1016.85
2016-07-08T03:53:47.119Z,1016.83
2016-07-08T03:58:47.113Z,1016.77
2016-07-08T04:03:47.103Z,1016.68
2016-07-08T04:08:47.096Z,1016.74
2016-07-08T04:13:47.084Z,1016.59
2016-07-08T04:18:47.079Z,1016.46
2016-07-08T04:23:47.069Z,1016.38
2016-07-08T04:28:47.060Z,1016.32
2016-07-08T04:33:47.051Z,1016.18
2016-07-08T04:38:47.045Z,1016.14
2016-07-08T04:43:47.037Z,1016.25
2016-07-08T04:48:47.028Z,1016.23
2016-07-08T04:53:47.022Z,1016.17
2016-07-08T04:58:47.013Z,1016.17
2016-07-08T05:03:47.008Z,1016.04
2016-07-08T05:08:46.996Z,1015.92
2016-07-08T05:13:46.985Z,1015.86
2016-07-08T05:18:46.977Z,1015.83
2016-07-08T05:23:46.967Z,1015.88
2016-07-08T05:28:46.959Z,1015.9
2016-07-08T05:33:46.948Z,1015.84
2016-07-08T05:38:46.944Z,1015.77
2016-07-08T05:43:46.938Z,1015.71
2016-07-08T05:48:46.936Z,1015.54
2016-07-08T05:53:46.935Z,1015.64
2016-07-08T05:58:46.929Z,1015.74
2016-07-08T06:03:46.925Z,1015.66
2016-07-08T06:08:46.924Z,1015.62
2016-07-08T06:13:46.923Z,1015.5
2016-07-08T06:18:46.923Z,1015.47
2016-07-08T06:23:46.923Z,1015.45
2016-07-08T06:28:46.923Z,1015.49
2016-07-08T06:33:46.922Z,1015.49
2016-07-08T06:38:46.922Z,1015.58
2016-07-08T06:43:46.924Z,1015.66
2016-07-08T06:48:46.919Z,1015.68
2016-07-08T06:53:46.916Z,1015.72
2016-07-08T06:58:46.913Z,1015.77
2016-07-08T07:03:46.912Z,1015.78
2016-07-08T07:08:46.913Z,1015.92
2016-07-08T07:13:46.908Z,1015.96
2016-07-08T07:18:46.909Z,1015.9
2016-07-08T07:23:46.909Z,1015.79
2016-07-08T07:28:46.912Z,1015.79
2016-07-08T07:33:46.907Z,1015.81
2016-07-08T07:38:46.910Z,1015.66
2016-07-08T07:43:46.905Z,1015.52
2016-07-08T07:48:46.904Z,1015.78
2016-07-08T07:53:46.904Z,1015.74
2016-07-08T07:58:46.903Z,1015.75
2016-07-08T08:03:46.906Z,1015.72
2016-07-08T08:08:46.904Z,1015.56
2016-07-08T08:13:46.905Z,1015.69
2016-07-08T08:18:46.904Z,1015.64
2016-07-08T08:23:46.911Z,1015.58
2016-07-08T08:28:46.906Z,1015.56
2016-07-08T08:33:46.910Z,1015.47
2016-07-08T08:38:46.912Z,1015.44
2016-07-08T08:43:46.911Z,1015.34
2016-07-08T08:48:46.913Z,1015.4
2016-07-08T08:53:46.912Z,1015.39
2016-07-08T08:58:46.917Z,1015.36
2016-07-08T09:03:46.915Z,1015.25
2016-07-08T09:08:46.916Z,1015.15
2016-07-08T09:13:46.914Z,1015.15
2016-07-08T09:18:46.914Z,1015.11
2016-07-08T09:23:46.915Z,1015.13
2016-07-08T09:28:46.913Z,1015.11
2016-07-08T09:33:46.911Z,1015.13
2016-07-08T09:38:46.913Z,1015.1
2016-07-08T09:43:46.911Z,1015.06
2016-07-08T09:48:46.910Z,1015.07
2016-07-08T09:53:46.914Z,1015.13
2016-07-08T09:58:46.912Z,1015.22
2016-07-08T10:03:46.911Z,1015.24
2016-07-08T10:08:46.914Z,1015.31
2016-07-08T10:13:46.914Z,1015.42
2016-07-08T10:18:46.914Z,1015.38
2016-07-08T10:23:46.913Z,1015.38
2016-07-08T10:28:46.918Z,1015.48
2016-07-08T10:33:46.917Z,1015.52
2016-07-08T10:38:46.932Z,1015.55
2016-07-08T10:43:46.920Z,1015.46
2016-07-08T10:48:46.922Z,1015.6
2016-07-08T10:53:46.922Z,1015.61
2016-07-08T10:58:46.923Z,1015.69
2016-07-08T11:03:46.921Z,1015.76
2016-07-08T11:08:46.924Z,1015.92
2016-07-08T11:13:46.924Z,1016.02
2016-07-08T11:18:46.929Z,1015.91
2016-07-08T11:23:46.930Z,1016.03
2016-07-08T11:28:46.930Z,1016.01
2016-07-08T11:33:46.930Z,1016.03
2016-07-08T11:38:46.930Z,1015.83
2016-07-08T11:43:46.930Z,1015.71
2016-07-08T11:48:46.935Z,1015.58
2016-07-08T11:53:46.933Z,1015.4
2016-07-08T11:58:46.931Z,1015.52
2016-07-08T12:03:46.931Z,1016.02
2016-07-08T12:08:46.932Z,1015.94
2016-07-08T12:13:46.934Z,1015.91
2016-07-08T12:18:46.935Z,1015.95
2016-07-08T12:25:56.162Z,1015.96
2016-07-08T12:30:56.162Z,1015.95
2016-07-08T12:35:56.164Z,1015.93
2016-07-08T12:40:56.165Z,1015.94
2016-07-08T12:45:56.168Z,1015.82
2016-07-08T12:50:56.170Z,1015.75
2016-07-08T12:55:56.174Z,1015.67
2016-07-08T13:00:56.174Z,1015.75
2016-07-08T13:05:56.175Z,1015.83
2016-07-08T13:10:56.179Z,1015.95
2016-07-08T13:15:56.177Z,1016.07
2016-07-08T13:20:56.183Z,1016.09
2016-07-08T13:25:56.189Z,1016.04
2016-07-08T13:30:56.184Z,1016
2016-07-08T13:35:56.185Z,1016.02
2016-07-08T13:40:56.187Z,1016.04
2016-07-08T13:45:56.173Z,1016.12
2016-07-08T13:50:56.136Z,1016.22
2016-07-08T13:55:56.100Z,1016.24
2016-07-08T14:00:56.070Z,1016.27
2016-07-08T14:05:56.037Z,1016.27
2016-07-08T14:10:55.997Z,1016.26
2016-07-08T14:15:56.115Z,1016.19
2016-07-08T14:20:55.928Z,1016.27
2016-07-08T14:25:55.891Z,1016.33
2016-07-08T14:30:55.857Z,1016.3
2016-07-08T14:35:55.817Z,1016.32
2016-07-08T14:40:55.781Z,1016.27
2016-07-08T14:45:55.750Z,1016.35
2016-07-08T14:50:55.713Z,1016.34
2016-07-08T14:55:55.681Z,1016.34
2016-07-08T15:00:55.647Z,1016.32
2016-07-08T21:00:50.670Z,1018.35
2016-07-08T21:24:46.755Z,1018.61
2016-07-08T21:29:46.746Z,1018.71
2016-07-08T21:34:46.730Z,1018.69
2016-07-08T21:39:46.718Z,1018.66
2016-07-08T21:44:46.706Z,1018.73
2016-07-08T21:49:46.694Z,1018.85
2016-07-08T21:54:46.683Z,1018.88
2016-07-08T21:59:46.669Z,1018.89
2016-07-08T22:04:46.656Z,1018.94
2016-07-08T22:09:46.648Z,1019.01
2016-07-08T22:14:46.629Z,1019.02
2016-07-08T22:19:46.617Z,1019
2016-07-08T22:24:46.601Z,1019.08
2016-07-08T22:29:46.587Z,1019.09
2016-07-08T22:34:46.575Z,1019.07
2016-07-08T22:39:46.563Z,1019.05
2016-07-08T22:44:46.552Z,1019.13
2016-07-08T22:49:46.538Z,1019.13
2016-07-08T22:54:46.522Z,1019.13
2016-07-08T22:59:46.509Z,1019.16
2016-07-08T23:04:46.500Z,1019.22
2016-07-08T23:09:46.483Z,1019.25
2016-07-08T23:14:46.471Z,1019.25
2016-07-08T23:19:46.460Z,1019.19
2016-07-08T23:24:46.449Z,1019.24
2016-07-08T23:29:46.435Z,1019.23
2016-07-08T23:34:46.423Z,1019.26
2016-07-08T23:39:46.412Z,1019.27
2016-07-08T23:44:46.400Z,1019.36
2016-07-08T23:49:46.385Z,1019.29
2016-07-08T23:54:46.375Z,1019.29
2016-07-08T23:59:46.362Z,1019.33
